Terminal Aerodrome Forecast
Issued by NWS Portland, OR

Home | Current Version | Previous Version | Text Only | Print | Product List | Glossary On
Versions: 1 2 3 4 5 6 7 8 9 10 11 12 13 14 15 16 17
000
FTUS46 KPQR 310535
TAFAST
TAF
KAST 310535Z 3106/0106 21006KT P6SM -RA OVC050
     FM311000 15004KT P6SM -RA OVC018
     FM312100 22010G16KT 4SM BR OVC015=

USA.gov is the U.S. government's official web portal to all federal, state and local government web resources and services.